sensor_id;sensor_type;location;lat;lon;timestamp;pressure;altitude;pressure_sealevel;temperature;humidity
7441;BME280;29616;51.950;8.572;2022-11-13T00:01:14;101238.88;;;5.28;100.00
7441;BME280;29616;51.950;8.572;2022-11-13T00:04:04;101228.69;;;5.17;100.00
7441;BME280;29616;51.950;8.572;2022-11-13T00:06:50;101216.66;;;5.07;100.00
7441;BME280;29616;51.950;8.572;2022-11-13T00:09:43;101239.38;;;5.05;100.00
7441;BME280;29616;51.950;8.572;2022-11-13T00:12:31;101228.03;;;4.98;100.00
7441;BME280;29616;51.950;8.572;2022-11-13T00:15:21;101232.06;;;4.91;100.00
7441;BME280;29616;51.950;8.572;2022-11-13T00:18:11;101232.78;;;4.95;100.00
7441;BME280;29616;51.950;8.572;2022-11-13T00:21:04;101213.00;;;4.93;100.00
7441;BME280;29616;51.950;8.572;2022-11-13T00:23:52;101234.16;;;5.02;100.00
7441;BME280;29616;51.950;8.572;2022-11-13T00:26:40;101226.97;;;5.01;100.00
7441;BME280;29616;51.950;8.572;2022-11-13T00:29:27;101224.09;;;5.04;100.00
7441;BME280;29616;51.950;8.572;2022-11-13T00:32:16;101218.59;;;5.05;100.00
7441;BME280;29616;51.950;8.572;2022-11-13T00:35:06;101219.44;;;5.06;100.00
7441;BME280;29616;51.950;8.572;2022-11-13T00:37:54;101223.13;;;5.05;100.00
7441;BME280;29616;51.950;8.572;2022-11-13T00:40:42;101220.31;;;5.06;100.00
7441;BME280;29616;51.950;8.572;2022-11-13T00:43:29;101216.00;;;5.18;100.00
7441;BME280;29616;51.950;8.572;2022-11-13T00:46:17;101217.53;;;5.08;100.00
7441;BME280;29616;51.950;8.572;2022-11-13T00:49:06;101217.72;;;5.05;100.00
7441;BME280;29616;51.950;8.572;2022-11-13T00:51:53;101225.25;;;5.00;100.00
7441;BME280;29616;51.950;8.572;2022-11-13T00:54:41;101221.56;;;5.01;100.00
7441;BME280;29616;51.950;8.572;2022-11-13T00:57:29;101213.66;;;5.12;100.00
7441;BME280;29616;51.950;8.572;2022-11-13T01:00:18;101212.44;;;5.17;100.00
7441;BME280;29616;51.950;8.572;2022-11-13T01:03:05;101198.47;;;5.09;100.00
7441;BME280;29616;51.950;8.572;2022-11-13T01:05:55;101210.78;;;5.15;100.00
7441;BME280;29616;51.950;8.572;2022-11-13T01:08:43;101208.66;;;5.20;100.00
7441;BME280;29616;51.950;8.572;2022-11-13T01:11:30;101211.38;;;5.20;100.00
7441;BME280;29616;51.950;8.572;2022-11-13T01:14:18;101213.31;;;5.18;100.00
7441;BME280;29616;51.950;8.572;2022-11-13T01:17:05;101214.94;;;5.20;100.00
7441;BME280;29616;51.950;8.572;2022-11-13T01:19:53;101206.50;;;5.11;100.00
7441;BME280;29616;51.950;8.572;2022-11-13T01:22:42;101207.19;;;5.14;100.00
7441;BME280;29616;51.950;8.572;2022-11-13T01:25:30;101211.94;;;5.11;100.00
7441;BME280;29616;51.950;8.572;2022-11-13T01:28:20;101196.97;;;5.04;100.00
7441;BME280;29616;51.950;8.572;2022-11-13T01:31:11;101180.50;;;4.93;100.00
7441;BME280;29616;51.950;8.572;2022-11-13T01:34:01;101194.28;;;5.04;100.00
7441;BME280;29616;51.950;8.572;2022-11-13T01:36:47;101192.44;;;5.04;100.00
7441;BME280;29616;51.950;8.572;2022-11-13T01:39:37;101191.09;;;5.11;100.00
7441;BME280;29616;51.950;8.572;2022-11-13T01:42:23;101185.19;;;5.05;100.00
7441;BME280;29616;51.950;8.572;2022-11-13T01:48:48;101157.97;;;4.92;100.00
7441;BME280;29616;51.950;8.572;2022-11-13T01:51:40;101175.06;;;5.08;100.00
7441;BME280;29616;51.950;8.572;2022-11-13T01:54:31;101181.31;;;5.09;100.00
7441;BME280;29616;51.950;8.572;2022-11-13T01:57:22;101174.00;;;5.11;100.00
7441;BME280;29616;51.950;8.572;2022-11-13T02:00:12;101172.13;;;5.11;100.00
7441;BME280;29616;51.950;8.572;2022-11-13T02:03:01;101167.88;;;5.07;100.00
7441;BME280;29616;51.950;8.572;2022-11-13T02:05:49;101162.28;;;5.10;100.00
7441;BME280;29616;51.950;8.572;2022-11-13T02:08:37;101162.09;;;5.13;100.00
7441;BME280;29616;51.950;8.572;2022-11-13T02:11:26;101161.63;;;5.21;100.00
7441;BME280;29616;51.950;8.572;2022-11-13T02:14:15;101157.34;;;5.17;100.00
7441;BME280;29616;51.950;8.572;2022-11-13T02:17:06;101145.75;;;5.29;100.00
7441;BME280;29616;51.950;8.572;2022-11-13T02:19:59;101149.28;;;5.45;100.00
7441;BME280;29616;51.950;8.572;2022-11-13T02:22:55;101143.47;;;5.37;100.00
7441;BME280;29616;51.950;8.572;2022-11-13T02:25:50;101146.66;;;5.29;100.00
7441;BME280;29616;51.950;8.572;2022-11-13T02:28:40;101146.78;;;5.12;100.00
7441;BME280;29616;51.950;8.572;2022-11-13T02:31:28;101146.19;;;5.07;100.00
7441;BME280;29616;51.950;8.572;2022-11-13T02:34:16;101154.41;;;5.06;100.00
7441;BME280;29616;51.950;8.572;2022-11-13T02:37:04;101145.91;;;4.98;100.00
7441;BME280;29616;51.950;8.572;2022-11-13T02:39:53;101140.66;;;4.95;100.00
7441;BME280;29616;51.950;8.572;2022-11-13T02:42:41;101140.72;;;4.93;100.00
7441;BME280;29616;51.950;8.572;2022-11-13T02:45:31;101128.59;;;4.84;100.00
7441;BME280;29616;51.950;8.572;2022-11-13T02:48:21;101141.03;;;4.88;100.00
7441;BME280;29616;51.950;8.572;2022-11-13T02:51:09;101137.00;;;4.80;100.00
7441;BME280;29616;51.950;8.572;2022-11-13T02:53:58;101126.47;;;4.75;100.00
7441;BME280;29616;51.950;8.572;2022-11-13T02:56:45;101136.31;;;4.76;100.00
7441;BME280;29616;51.950;8.572;2022-11-13T02:59:35;101133.88;;;4.72;100.00
7441;BME280;29616;51.950;8.572;2022-11-13T03:02:23;101128.16;;;4.62;100.00
7441;BME280;29616;51.950;8.572;2022-11-13T03:05:10;101127.97;;;4.65;100.00
7441;BME280;29616;51.950;8.572;2022-11-13T03:08:00;101120.28;;;4.58;100.00
7441;BME280;29616;51.950;8.572;2022-11-13T03:10:50;101116.91;;;4.54;100.00
7441;BME280;29616;51.950;8.572;2022-11-13T03:13:39;101119.25;;;4.45;100.00
7441;BME280;29616;51.950;8.572;2022-11-13T03:16:27;101120.69;;;4.36;100.00
7441;BME280;29616;51.950;8.572;2022-11-13T03:19:15;101117.72;;;4.25;100.00
7441;BME280;29616;51.950;8.572;2022-11-13T03:22:04;101118.97;;;4.19;100.00
7441;BME280;29616;51.950;8.572;2022-11-13T03:24:51;101121.06;;;4.14;100.00
7441;BME280;29616;51.950;8.572;2022-11-13T03:27:40;101124.72;;;3.98;100.00
7441;BME280;29616;51.950;8.572;2022-11-13T03:30:27;101096.94;;;3.79;100.00
7441;BME280;29616;51.950;8.572;2022-11-13T03:33:17;101126.38;;;3.85;100.00
7441;BME280;29616;51.950;8.572;2022-11-13T03:36:05;101115.97;;;3.61;100.00
7441;BME280;29616;51.950;8.572;2022-11-13T03:38:52;101125.06;;;3.43;100.00
7441;BME280;29616;51.950;8.572;2022-11-13T03:41:40;101125.75;;;3.47;100.00
7441;BME280;29616;51.950;8.572;2022-11-13T03:44:28;101120.00;;;3.37;100.00
7441;BME280;29616;51.950;8.572;2022-11-13T03:47:16;101117.16;;;3.23;100.00
7441;BME280;29616;51.950;8.572;2022-11-13T03:50:07;101107.03;;;3.11;100.00
7441;BME280;29616;51.950;8.572;2022-11-13T03:52:57;101115.03;;;3.13;100.00
7441;BME280;29616;51.950;8.572;2022-11-13T03:55:45;101101.22;;;3.19;100.00
7441;BME280;29616;51.950;8.572;2022-11-13T03:58:33;101121.91;;;3.35;100.00
7441;BME280;29616;51.950;8.572;2022-11-13T04:01:24;101112.69;;;3.22;100.00
7441;BME280;29616;51.950;8.572;2022-11-13T04:04:12;101112.22;;;3.31;100.00
7441;BME280;29616;51.950;8.572;2022-11-13T04:07:02;101097.16;;;3.27;100.00
7441;BME280;29616;51.950;8.572;2022-11-13T04:09:49;101089.69;;;3.15;100.00
7441;BME280;29616;51.950;8.572;2022-11-13T04:12:37;101091.28;;;3.19;100.00
7441;BME280;29616;51.950;8.572;2022-11-13T04:15:26;101099.91;;;3.26;100.00
7441;BME280;29616;51.950;8.572;2022-11-13T04:18:16;101094.31;;;3.46;100.00
7441;BME280;29616;51.950;8.572;2022-11-13T04:21:04;101091.34;;;3.50;100.00
7441;BME280;29616;51.950;8.572;2022-11-13T04:23:54;101090.31;;;3.53;100.00
7441;BME280;29616;51.950;8.572;2022-11-13T04:26:42;101087.94;;;3.47;100.00
7441;BME280;29616;51.950;8.572;2022-11-13T04:29:32;101056.75;;;3.09;100.00
7441;BME280;29616;51.950;8.572;2022-11-13T04:32:20;101080.47;;;3.19;100.00
7441;BME280;29616;51.950;8.572;2022-11-13T04:35:07;101073.72;;;3.11;100.00
7441;BME280;29616;51.950;8.572;2022-11-13T04:37:55;101072.94;;;3.09;100.00
7441;BME280;29616;51.950;8.572;2022-11-13T04:40:47;101082.19;;;3.20;100.00
7441;BME280;29616;51.950;8.572;2022-11-13T04:43:36;101074.88;;;3.22;100.00
7441;BME280;29616;51.950;8.572;2022-11-13T04:46:22;101063.03;;;3.25;100.00
7441;BME280;29616;51.950;8.572;2022-11-13T04:49:10;101074.41;;;3.14;100.00
7441;BME280;29616;51.950;8.572;2022-11-13T04:51:58;101064.91;;;3.07;100.00
7441;BME280;29616;51.950;8.572;2022-11-13T04:54:47;101057.97;;;3.19;100.00
7441;BME280;29616;51.950;8.572;2022-11-13T04:57:35;101060.75;;;3.17;100.00
7441;BME280;29616;51.950;8.572;2022-11-13T05:00:24;101047.13;;;3.03;100.00
7441;BME280;29616;51.950;8.572;2022-11-13T05:03:11;101043.09;;;2.94;100.00
7441;BME280;29616;51.950;8.572;2022-11-13T05:06:02;101049.84;;;3.03;100.00
7441;BME280;29616;51.950;8.572;2022-11-13T05:08:49;101056.66;;;3.10;100.00
7441;BME280;29616;51.950;8.572;2022-11-13T05:11:36;100982.78;;;2.78;100.00
7441;BME280;29616;51.950;8.572;2022-11-13T05:14:25;101047.78;;;3.24;100.00
7441;BME280;29616;51.950;8.572;2022-11-13T05:17:12;101048.81;;;3.05;100.00
7441;BME280;29616;51.950;8.572;2022-11-13T05:20:00;101027.88;;;3.09;100.00
7441;BME280;29616;51.950;8.572;2022-11-13T05:22:48;101051.88;;;3.31;100.00
7441;BME280;29616;51.950;8.572;2022-11-13T05:25:36;101033.97;;;3.45;100.00
7441;BME280;29616;51.950;8.572;2022-11-13T05:28:25;101042.69;;;3.35;100.00
7441;BME280;29616;51.950;8.572;2022-11-13T05:31:15;101024.41;;;3.23;100.00
7441;BME280;29616;51.950;8.572;2022-11-13T05:34:03;100988.22;;;3.10;100.00
7441;BME280;29616;51.950;8.572;2022-11-13T05:36:52;101033.25;;;3.26;100.00
7441;BME280;29616;51.950;8.572;2022-11-13T05:39:40;101032.16;;;3.13;100.00
7441;BME280;29616;51.950;8.572;2022-11-13T05:42:26;101020.91;;;3.05;100.00
7441;BME280;29616;51.950;8.572;2022-11-13T05:45:14;101024.50;;;3.05;100.00
7441;BME280;29616;51.950;8.572;2022-11-13T05:48:03;101015.78;;;2.83;100.00
7441;BME280;29616;51.950;8.572;2022-11-13T05:50:51;101021.34;;;2.80;100.00
7441;BME280;29616;51.950;8.572;2022-11-13T05:53:40;101021.59;;;2.76;100.00
7441;BME280;29616;51.950;8.572;2022-11-13T05:56:32;101012.53;;;2.77;100.00
7441;BME280;29616;51.950;8.572;2022-11-13T05:59:20;101015.53;;;2.88;100.00
7441;BME280;29616;51.950;8.572;2022-11-13T06:02:06;100995.69;;;2.89;100.00
7441;BME280;29616;51.950;8.572;2022-11-13T06:04:54;101003.69;;;2.90;100.00
7441;BME280;29616;51.950;8.572;2022-11-13T06:07:41;101013.09;;;2.83;100.00
7441;BME280;29616;51.950;8.572;2022-11-13T06:10:29;101006.19;;;2.78;100.00
7441;BME280;29616;51.950;8.572;2022-11-13T06:13:19;100996.78;;;2.85;100.00
7441;BME280;29616;51.950;8.572;2022-11-13T06:16:08;100979.03;;;2.64;100.00
7441;BME280;29616;51.950;8.572;2022-11-13T06:19:01;100988.22;;;2.77;100.00
7441;BME280;29616;51.950;8.572;2022-11-13T06:21:49;100980.38;;;2.89;100.00
7441;BME280;29616;51.950;8.572;2022-11-13T06:24:39;100985.88;;;2.71;100.00
7441;BME280;29616;51.950;8.572;2022-11-13T06:27:27;100969.69;;;2.71;100.00
7441;BME280;29616;51.950;8.572;2022-11-13T06:30:15;100977.56;;;2.91;100.00
7441;BME280;29616;51.950;8.572;2022-11-13T06:33:07;100970.34;;;2.91;100.00
7441;BME280;29616;51.950;8.572;2022-11-13T06:35:54;100974.81;;;2.92;100.00
7441;BME280;29616;51.950;8.572;2022-11-13T06:38:45;100981.16;;;2.91;100.00
7441;BME280;29616;51.950;8.572;2022-11-13T06:41:34;100966.47;;;3.13;100.00
7441;BME280;29616;51.950;8.572;2022-11-13T06:44:21;100977.16;;;3.14;100.00
7441;BME280;29616;51.950;8.572;2022-11-13T06:47:08;100965.09;;;3.21;100.00
7441;BME280;29616;51.950;8.572;2022-11-13T06:49:56;100970.31;;;3.24;100.00
7441;BME280;29616;51.950;8.572;2022-11-13T06:52:43;100934.59;;;3.19;100.00
7441;BME280;29616;51.950;8.572;2022-11-13T06:55:33;100939.72;;;3.39;100.00
7441;BME280;29616;51.950;8.572;2022-11-13T06:58:21;100957.16;;;3.49;100.00
7441;BME280;29616;51.950;8.572;2022-11-13T07:01:13;100945.56;;;3.47;100.00
7441;BME280;29616;51.950;8.572;2022-11-13T07:04:01;100963.69;;;3.61;100.00
7441;BME280;29616;51.950;8.572;2022-11-13T07:06:49;100959.38;;;3.73;100.00
7441;BME280;29616;51.950;8.572;2022-11-13T07:09:38;100957.50;;;3.75;100.00
7441;BME280;29616;51.950;8.572;2022-11-13T07:12:28;100958.88;;;3.82;100.00
7441;BME280;29616;51.950;8.572;2022-11-13T07:15:16;100964.09;;;3.85;100.00
7441;BME280;29616;51.950;8.572;2022-11-13T07:18:05;100955.47;;;3.94;100.00
7441;BME280;29616;51.950;8.572;2022-11-13T07:20:52;100947.66;;;4.03;100.00
7441;BME280;29616;51.950;8.572;2022-11-13T07:23:42;100956.91;;;4.29;100.00
7441;BME280;29616;51.950;8.572;2022-11-13T07:26:29;100938.56;;;4.34;100.00
7441;BME280;29616;51.950;8.572;2022-11-13T07:29:19;100952.38;;;4.73;100.00
7441;BME280;29616;51.950;8.572;2022-11-13T07:32:06;100952.56;;;4.99;100.00
7441;BME280;29616;51.950;8.572;2022-11-13T07:34:55;100944.84;;;5.88;100.00
7441;BME280;29616;51.950;8.572;2022-11-13T07:37:44;100880.22;;;9.06;100.00
7441;BME280;29616;51.950;8.572;2022-11-13T07:40:32;100926.25;;;11.31;100.00
7441;BME280;29616;51.950;8.572;2022-11-13T07:43:20;100927.19;;;12.77;100.00
7441;BME280;29616;51.950;8.572;2022-11-13T07:46:09;100899.44;;;13.36;100.00
7441;BME280;29616;51.950;8.572;2022-11-13T07:48:58;100924.16;;;14.08;100.00
7441;BME280;29616;51.950;8.572;2022-11-13T07:51:44;100921.41;;;14.08;100.00
7441;BME280;29616;51.950;8.572;2022-11-13T07:54:33;100926.94;;;14.79;100.00
7441;BME280;29616;51.950;8.572;2022-11-13T07:57:21;100914.13;;;15.47;96.65
7441;BME280;29616;51.950;8.572;2022-11-13T08:00:09;100917.63;;;16.07;89.36
7441;BME280;29616;51.950;8.572;2022-11-13T08:02:57;100916.13;;;16.28;90.09
7441;BME280;29616;51.950;8.572;2022-11-13T08:05:48;100923.06;;;16.57;87.53
7441;BME280;29616;51.950;8.572;2022-11-13T08:08:35;100921.47;;;17.27;77.13
7441;BME280;29616;51.950;8.572;2022-11-13T08:11:22;100920.63;;;17.10;77.99
7441;BME280;29616;51.950;8.572;2022-11-13T08:14:09;100920.59;;;15.12;100.00
7441;BME280;29616;51.950;8.572;2022-11-13T08:16:56;100917.72;;;16.71;93.08
7441;BME280;29616;51.950;8.572;2022-11-13T08:19:44;100917.94;;;18.27;85.94
7441;BME280;29616;51.950;8.572;2022-11-13T08:22:31;100929.28;;;18.85;79.28
7441;BME280;29616;51.950;8.572;2022-11-13T08:25:20;100924.34;;;19.76;76.01
7441;BME280;29616;51.950;8.572;2022-11-13T08:28:09;100918.97;;;19.75;72.23
7441;BME280;29616;51.950;8.572;2022-11-13T08:30:59;100910.66;;;19.75;94.35
7441;BME280;29616;51.950;8.572;2022-11-13T08:33:47;100928.94;;;20.34;73.31
7441;BME280;29616;51.950;8.572;2022-11-13T08:36:36;100914.00;;;20.35;90.70
7441;BME280;29616;51.950;8.572;2022-11-13T08:39:24;100928.56;;;20.80;88.37
7441;BME280;29616;51.950;8.572;2022-11-13T08:42:11;100926.56;;;20.95;84.74
7441;BME280;29616;51.950;8.572;2022-11-13T08:44:59;100925.38;;;21.04;88.80
7441;BME280;29616;51.950;8.572;2022-11-13T08:47:47;100921.03;;;21.85;65.91
7441;BME280;29616;51.950;8.572;2022-11-13T08:50:36;100931.25;;;22.85;69.70
7441;BME280;29616;51.950;8.572;2022-11-13T08:53:27;100928.06;;;22.88;61.21
7441;BME280;29616;51.950;8.572;2022-11-13T08:56:15;100930.63;;;23.23;62.71
7441;BME280;29616;51.950;8.572;2022-11-13T08:59:03;100929.09;;;22.74;74.10
7441;BME280;29616;51.950;8.572;2022-11-13T09:01:51;100932.63;;;23.99;60.62
7441;BME280;29616;51.950;8.572;2022-11-13T09:04:44;100920.59;;;24.05;58.85
7441;BME280;29616;51.950;8.572;2022-11-13T09:07:31;100918.53;;;24.70;57.97
7441;BME280;29616;51.950;8.572;2022-11-13T09:10:21;100916.16;;;24.73;58.84
7441;BME280;29616;51.950;8.572;2022-11-13T09:13:08;100905.94;;;24.92;64.39
7441;BME280;29616;51.950;8.572;2022-11-13T09:15:58;100903.66;;;24.45;69.17
7441;BME280;29616;51.950;8.572;2022-11-13T09:18:48;100877.41;;;24.84;60.29
7441;BME280;29616;51.950;8.572;2022-11-13T09:21:37;100901.50;;;25.09;64.42
7441;BME280;29616;51.950;8.572;2022-11-13T09:24:26;100900.22;;;25.05;63.16
7441;BME280;29616;51.950;8.572;2022-11-13T09:27:15;100896.31;;;24.88;61.50
7441;BME280;29616;51.950;8.572;2022-11-13T09:30:05;100886.44;;;25.28;66.26
7441;BME280;29616;51.950;8.572;2022-11-13T09:32:55;100893.22;;;25.64;59.68
7441;BME280;29616;51.950;8.572;2022-11-13T09:35:44;100890.09;;;26.08;59.71
7441;BME280;29616;51.950;8.572;2022-11-13T09:38:32;100884.75;;;26.07;60.83
7441;BME280;29616;51.950;8.572;2022-11-13T09:41:25;100894.75;;;26.51;59.42
7441;BME280;29616;51.950;8.572;2022-11-13T09:44:29;100891.03;;;26.38;65.73
7441;BME280;29616;51.950;8.572;2022-11-13T09:47:23;100885.84;;;26.24;53.72
7441;BME280;29616;51.950;8.572;2022-11-13T09:50:16;100865.91;;;26.73;51.65
7441;BME280;29616;51.950;8.572;2022-11-13T09:53:09;100872.38;;;26.14;47.03
7441;BME280;29616;51.950;8.572;2022-11-13T09:56:07;100874.22;;;26.38;48.59
7441;BME280;29616;51.950;8.572;2022-11-13T09:59:11;100872.53;;;26.79;43.55
7441;BME280;29616;51.950;8.572;2022-11-13T10:02:15;100867.47;;;27.11;46.37
7441;BME280;29616;51.950;8.572;2022-11-13T10:05:10;100860.38;;;26.85;43.36
7441;BME280;29616;51.950;8.572;2022-11-13T10:08:03;100850.16;;;27.37;42.34
7441;BME280;29616;51.950;8.572;2022-11-13T10:10:58;100854.41;;;27.39;40.09
7441;BME280;29616;51.950;8.572;2022-11-13T10:13:51;100857.09;;;27.11;37.61
7441;BME280;29616;51.950;8.572;2022-11-13T10:16:39;100847.72;;;27.05;36.97
7441;BME280;29616;51.950;8.572;2022-11-13T10:19:32;100843.31;;;27.33;38.90
7441;BME280;29616;51.950;8.572;2022-11-13T10:22:25;100842.72;;;27.19;38.25
7441;BME280;29616;51.950;8.572;2022-11-13T10:25:21;100841.31;;;26.34;38.17
7441;BME280;29616;51.950;8.572;2022-11-13T10:28:13;100842.66;;;25.41;39.67
7441;BME280;29616;51.950;8.572;2022-11-13T10:31:23;100852.38;;;24.64;41.69
7441;BME280;29616;51.950;8.572;2022-11-13T10:34:11;100840.69;;;24.04;43.89
7441;BME280;29616;51.950;8.572;2022-11-13T10:37:05;100843.97;;;23.95;44.39
7441;BME280;29616;51.950;8.572;2022-11-13T10:39:58;100844.97;;;23.56;46.36
7441;BME280;29616;51.950;8.572;2022-11-13T10:42:46;100829.84;;;23.83;45.88
7441;BME280;29616;51.950;8.572;2022-11-13T10:45:34;100838.84;;;23.15;48.00
7441;BME280;29616;51.950;8.572;2022-11-13T10:48:25;100815.25;;;22.98;48.43
7441;BME280;29616;51.950;8.572;2022-11-13T10:51:23;100816.97;;;22.59;50.31
7441;BME280;29616;51.950;8.572;2022-11-13T10:54:23;100816.53;;;22.56;50.72
7441;BME280;29616;51.950;8.572;2022-11-13T10:57:23;100791.53;;;21.35;52.91
7441;BME280;29616;51.950;8.572;2022-11-13T11:00:29;100824.88;;;21.75;53.17
7441;BME280;29616;51.950;8.572;2022-11-13T11:03:19;100814.59;;;21.01;57.35
7441;BME280;29616;51.950;8.572;2022-11-13T11:06:07;100803.50;;;21.01;56.95
7441;BME280;29616;51.950;8.572;2022-11-13T11:09:06;100804.09;;;19.84;60.73
7441;BME280;29616;51.950;8.572;2022-11-13T11:12:08;100790.19;;;18.60;66.40
7441;BME280;29616;51.950;8.572;2022-11-13T11:15:19;100788.69;;;17.90;73.18
7441;BME280;29616;51.950;8.572;2022-11-13T11:18:23;100783.28;;;17.43;80.12
7441;BME280;29616;51.950;8.572;2022-11-13T11:21:17;100769.97;;;17.08;86.27
7441;BME280;29616;51.950;8.572;2022-11-13T11:24:06;100761.28;;;16.64;94.81
7441;BME280;29616;51.950;8.572;2022-11-13T11:27:07;100773.38;;;16.47;100.00
7441;BME280;29616;51.950;8.572;2022-11-13T11:30:04;100745.81;;;16.22;100.00
7441;BME280;29616;51.950;8.572;2022-11-13T11:33:00;100757.72;;;16.55;96.22
7441;BME280;29616;51.950;8.572;2022-11-13T11:35:58;100741.84;;;16.33;86.77
7441;BME280;29616;51.950;8.572;2022-11-13T11:38:53;100751.31;;;16.38;83.29
7441;BME280;29616;51.950;8.572;2022-11-13T11:41:45;100759.06;;;16.43;84.24
7441;BME280;29616;51.950;8.572;2022-11-13T11:44:53;100752.19;;;16.39;87.33
7441;BME280;29616;51.950;8.572;2022-11-13T11:47:42;100748.88;;;16.68;82.49
7441;BME280;29616;51.950;8.572;2022-11-13T11:50:36;100737.47;;;17.79;69.61
7441;BME280;29616;51.950;8.572;2022-11-13T11:53:40;100727.66;;;17.91;67.15
7441;BME280;29616;51.950;8.572;2022-11-13T11:56:33;100753.56;;;17.98;63.56
7441;BME280;29616;51.950;8.572;2022-11-13T11:59:39;100741.97;;;19.78;56.28
7441;BME280;29616;51.950;8.572;2022-11-13T12:02:56;100751.00;;;20.50;49.03
7441;BME280;29616;51.950;8.572;2022-11-13T12:06:02;100755.16;;;20.95;47.47
7441;BME280;29616;51.950;8.572;2022-11-13T12:09:02;100744.00;;;20.89;47.25
7441;BME280;29616;51.950;8.572;2022-11-13T12:12:01;100738.53;;;19.98;48.20
7441;BME280;29616;51.950;8.572;2022-11-13T12:15:03;100744.06;;;20.40;48.25
7441;BME280;29616;51.950;8.572;2022-11-13T12:18:07;100747.78;;;21.09;46.76
7441;BME280;29616;51.950;8.572;2022-11-13T12:21:09;100722.56;;;21.64;45.02
7441;BME280;29616;51.950;8.572;2022-11-13T12:24:26;100721.34;;;22.98;42.52
7441;BME280;29616;51.950;8.572;2022-11-13T12:27:26;100707.94;;;23.33;41.55
7441;BME280;29616;51.950;8.572;2022-11-13T12:30:21;100710.81;;;23.64;40.76
7441;BME280;29616;51.950;8.572;2022-11-13T12:33:22;100716.81;;;23.68;40.90
7441;BME280;29616;51.950;8.572;2022-11-13T12:36:13;100715.75;;;24.00;39.43
7441;BME280;29616;51.950;8.572;2022-11-13T12:39:09;100713.38;;;23.66;38.53
7441;BME280;29616;51.950;8.572;2022-11-13T12:42:10;100707.88;;;24.22;38.10
7441;BME280;29616;51.950;8.572;2022-11-13T12:45:09;100698.81;;;24.26;38.10
7441;BME280;29616;51.950;8.572;2022-11-13T12:48:08;100686.81;;;24.44;37.57
7441;BME280;29616;51.950;8.572;2022-11-13T12:50:59;100707.19;;;24.26;38.27
7441;BME280;29616;51.950;8.572;2022-11-13T12:53:51;100697.38;;;24.42;37.74
7441;BME280;29616;51.950;8.572;2022-11-13T12:56:39;100703.81;;;24.42;38.30
7441;BME280;29616;51.950;8.572;2022-11-13T12:59:32;100704.72;;;24.61;37.75
7441;BME280;29616;51.950;8.572;2022-11-13T13:02:49;100707.69;;;24.91;37.24
7441;BME280;29616;51.950;8.572;2022-11-13T13:06:02;100673.47;;;24.46;36.61
7441;BME280;29616;51.950;8.572;2022-11-13T13:09:04;100679.47;;;24.49;37.17
7441;BME280;29616;51.950;8.572;2022-11-13T13:12:05;100691.78;;;24.42;36.04
7441;BME280;29616;51.950;8.572;2022-11-13T13:15:22;100683.47;;;24.04;36.20
7441;BME280;29616;51.950;8.572;2022-11-13T13:18:27;100667.31;;;23.50;37.92
7441;BME280;29616;51.950;8.572;2022-11-13T13:21:19;100669.94;;;24.07;38.35
7441;BME280;29616;51.950;8.572;2022-11-13T13:24:08;100662.88;;;24.54;38.10
7441;BME280;29616;51.950;8.572;2022-11-13T13:26:57;100654.47;;;24.97;38.45
7441;BME280;29616;51.950;8.572;2022-11-13T13:29:47;100653.22;;;25.11;38.08
7441;BME280;29616;51.950;8.572;2022-11-13T13:32:48;100644.75;;;25.00;37.57
7441;BME280;29616;51.950;8.572;2022-11-13T13:35:46;100644.84;;;24.93;37.69
7441;BME280;29616;51.950;8.572;2022-11-13T13:38:44;100646.38;;;25.07;37.06
7441;BME280;29616;51.950;8.572;2022-11-13T13:41:49;100643.53;;;24.96;36.24
7441;BME280;29616;51.950;8.572;2022-11-13T13:44:57;100603.81;;;24.51;37.07
7441;BME280;29616;51.950;8.572;2022-11-13T13:47:50;100631.91;;;24.56;35.85
7441;BME280;29616;51.950;8.572;2022-11-13T13:50:43;100636.38;;;22.43;38.22
7441;BME280;29616;51.950;8.572;2022-11-13T13:53:33;100609.59;;;22.42;39.16
7441;BME280;29616;51.950;8.572;2022-11-13T13:56:25;100598.53;;;23.31;37.41
7441;BME280;29616;51.950;8.572;2022-11-13T13:59:17;100607.06;;;23.05;38.27
7441;BME280;29616;51.950;8.572;2022-11-13T14:02:15;100593.50;;;23.08;38.04
7441;BME280;29616;51.950;8.572;2022-11-13T14:05:24;100617.91;;;22.68;37.98
7441;BME280;29616;51.950;8.572;2022-11-13T14:08:17;100603.47;;;22.84;38.31
7441;BME280;29616;51.950;8.572;2022-11-13T14:11:18;100583.09;;;21.94;39.30
7441;BME280;29616;51.950;8.572;2022-11-13T14:14:15;100611.31;;;21.58;40.87
7441;BME280;29616;51.950;8.572;2022-11-13T14:17:03;100613.06;;;20.58;42.56
7441;BME280;29616;51.950;8.572;2022-11-13T14:19:54;100617.19;;;19.21;45.98
7441;BME280;29616;51.950;8.572;2022-11-13T14:22:48;100581.50;;;19.48;46.16
7441;BME280;29616;51.950;8.572;2022-11-13T14:25:41;100582.69;;;19.87;45.51
7441;BME280;29616;51.950;8.572;2022-11-13T14:28:30;100606.88;;;20.00;45.66
7441;BME280;29616;51.950;8.572;2022-11-13T14:31:25;100577.63;;;19.98;45.89
7441;BME280;29616;51.950;8.572;2022-11-13T14:34:18;100589.91;;;19.82;46.31
7441;BME280;29616;51.950;8.572;2022-11-13T14:37:21;100588.97;;;19.75;46.35
7441;BME280;29616;51.950;8.572;2022-11-13T14:40:18;100592.41;;;19.77;47.25
7441;BME280;29616;51.950;8.572;2022-11-13T14:43:12;100597.53;;;20.01;47.13
7441;BME280;29616;51.950;8.572;2022-11-13T14:46:23;100556.63;;;19.82;46.74
7441;BME280;29616;51.950;8.572;2022-11-13T14:49:14;100598.13;;;19.12;49.66
7441;BME280;29616;51.950;8.572;2022-11-13T14:52:01;100573.97;;;17.97;54.72
7441;BME280;29616;51.950;8.572;2022-11-13T14:55:00;100588.41;;;18.22;56.76
7441;BME280;29616;51.950;8.572;2022-11-13T14:58:10;100579.59;;;17.74;59.66
7441;BME280;29616;51.950;8.572;2022-11-13T15:01:12;100586.78;;;16.92;65.91
7441;BME280;29616;51.950;8.572;2022-11-13T15:04:03;100573.31;;;16.59;69.82
7441;BME280;29616;51.950;8.572;2022-11-13T15:06:54;100591.22;;;16.16;75.60
7441;BME280;29616;51.950;8.572;2022-11-13T15:09:43;100577.03;;;15.80;77.12
7441;BME280;29616;51.950;8.572;2022-11-13T15:12:30;100585.13;;;15.65;74.93